createdAt,value
2023-05-01T00:00:51.928Z,10.50
2023-05-01T00:01:51.898Z,10.30
2023-05-01T00:02:52.115Z,10.60
2023-05-01T00:03:52.164Z,11.50
2023-05-01T00:04:51.919Z,11.20
2023-05-01T00:05:51.853Z,9.00
2023-05-01T00:06:51.942Z,13.70
2023-05-01T00:07:51.842Z,11.00
2023-05-01T00:08:51.812Z,10.60
2023-05-01T00:09:51.800Z,10.70
2023-05-01T00:10:51.814Z,10.90
2023-05-01T00:11:51.781Z,12.10
2023-05-01T00:12:51.770Z,11.20
2023-05-01T00:13:51.758Z,11.60
2023-05-01T00:14:51.750Z,10.90
2023-05-01T00:15:51.819Z,10.60
2023-05-01T00:16:51.801Z,10.70
2023-05-01T00:17:51.763Z,8.90
2023-05-01T00:18:51.706Z,14.20
2023-05-01T00:19:51.690Z,10.60
2023-05-01T00:20:51.708Z,10.80
2023-05-01T00:21:51.667Z,10.50
2023-05-01T00:22:51.655Z,13.30
2023-05-01T00:23:51.654Z,11.20
2023-05-01T00:24:51.649Z,10.90
2023-05-01T00:25:51.645Z,12.10
2023-05-01T00:26:51.609Z,10.50
2023-05-01T00:27:51.593Z,11.30
2023-05-01T00:28:51.598Z,8.40
2023-05-01T00:29:51.586Z,10.30
2023-05-01T00:30:51.583Z,10.80
2023-05-01T00:31:51.625Z,11.20
2023-05-01T00:32:51.595Z,12.40
2023-05-01T00:33:51.540Z,9.10
2023-05-01T00:34:51.521Z,11.30
2023-05-01T00:35:51.540Z,10.20
2023-05-01T00:36:52.208Z,12.40
2023-05-01T00:37:51.498Z,9.90
2023-05-01T00:38:51.486Z,10.70
2023-05-01T00:39:51.481Z,11.40
2023-05-01T00:40:51.456Z,11.00
2023-05-01T00:41:51.463Z,10.50
2023-05-01T00:42:51.439Z,9.50
2023-05-01T00:43:51.434Z,10.90
2023-05-01T00:44:51.418Z,9.30
2023-05-01T00:45:51.471Z,9.60
2023-05-01T00:46:51.410Z,10.10
2023-05-01T00:47:51.458Z,8.50
2023-05-01T00:48:51.385Z,8.60
2023-05-01T00:49:51.366Z,10.60
2023-05-01T00:50:51.353Z,11.50
2023-05-01T00:51:51.352Z,11.20
2023-05-01T00:52:51.326Z,10.60
2023-05-01T00:53:51.307Z,10.00
2023-05-01T00:54:51.309Z,11.10
2023-05-01T00:55:51.314Z,10.90
2023-05-01T00:56:51.298Z,8.90
2023-05-01T00:57:51.276Z,11.10
2023-05-01T00:58:51.258Z,11.50
2023-05-01T00:59:51.249Z,9.50
2023-05-01T01:00:51.280Z,12.80
2023-05-01T01:01:51.244Z,8.50
2023-05-01T01:02:51.258Z,11.10
2023-05-01T01:03:51.209Z,11.00
2023-05-01T01:04:51.339Z,10.30
2023-05-01T01:05:51.185Z,9.00
2023-05-01T01:06:51.195Z,11.80
2023-05-01T01:07:51.224Z,10.50
2023-05-01T01:08:51.150Z,6.60
2023-05-01T01:09:51.147Z,10.30
2023-05-01T01:10:51.134Z,8.20
2023-05-01T01:11:51.126Z,8.70
2023-05-01T01:12:51.121Z,8.70
2023-05-01T01:13:51.097Z,9.50
2023-05-01T01:14:51.088Z,8.90
2023-05-01T01:15:51.069Z,8.70
2023-05-01T01:16:51.087Z,10.60
2023-05-01T01:17:51.096Z,10.40
2023-05-01T01:18:51.035Z,10.50
2023-05-01T01:19:51.021Z,9.10
2023-05-01T01:20:51.023Z,9.50
2023-05-01T01:21:51.020Z,8.60
2023-05-01T01:22:50.993Z,10.50
2023-05-01T01:23:51.002Z,9.20
2023-05-01T01:24:50.970Z,10.40
2023-05-01T01:25:50.961Z,11.70
2023-05-01T01:26:50.957Z,8.50
2023-05-01T01:27:50.938Z,9.00
2023-05-01T01:28:50.921Z,8.50
2023-05-01T01:29:50.915Z,10.20
2023-05-01T01:30:50.941Z,9.30
2023-05-01T01:31:50.914Z,8.70
2023-05-01T01:32:50.884Z,10.10
2023-05-01T01:33:50.872Z,7.60
2023-05-01T01:34:50.857Z,8.10
2023-05-01T01:35:50.852Z,7.30
2023-05-01T01:36:50.860Z,10.00
2023-05-01T01:37:50.819Z,9.80
2023-05-01T01:38:50.809Z,8.60
2023-05-01T01:39:50.801Z,7.50
2023-05-01T01:40:50.797Z,9.80
2023-05-01T01:41:50.809Z,11.10
2023-05-01T01:42:50.781Z,7.20
2023-05-01T01:43:50.769Z,9.30
2023-05-01T01:44:50.747Z,8.20
2023-05-01T01:45:50.793Z,9.00
2023-05-01T01:46:50.743Z,9.00
2023-05-01T01:47:50.765Z,10.80
2023-05-01T01:48:50.712Z,9.20
2023-05-01T01:49:50.693Z,7.80
2023-05-01T01:50:50.686Z,9.00
2023-05-01T01:51:50.687Z,9.60
2023-05-01T01:52:50.668Z,8.00
2023-05-01T01:53:50.656Z,7.40
2023-05-01T01:54:50.667Z,8.30
2023-05-01T01:55:50.623Z,9.40
2023-05-01T01:56:50.641Z,8.10
2023-05-01T01:57:50.607Z,11.30
2023-05-01T01:58:50.601Z,7.90
2023-05-01T01:59:50.579Z,8.10
2023-05-01T02:00:50.569Z,9.90
2023-05-01T02:01:50.584Z,6.80
2023-05-01T02:02:50.610Z,8.10
2023-05-01T02:03:50.612Z,7.70
2023-05-01T02:04:50.529Z,7.20
2023-05-01T02:05:50.517Z,7.50
2023-05-01T02:06:50.564Z,10.50
2023-05-01T02:07:50.494Z,8.30
2023-05-01T02:08:50.478Z,10.40
2023-05-01T02:09:50.470Z,8.10
2023-05-01T02:10:50.466Z,8.50
2023-05-01T02:11:50.472Z,7.50
2023-05-01T02:12:50.439Z,8.30
2023-05-01T02:13:50.418Z,7.60
2023-05-01T02:14:50.432Z,6.00
2023-05-01T02:15:50.422Z,7.00
2023-05-01T02:16:50.410Z,6.80
2023-05-01T02:17:50.416Z,7.00
2023-05-01T02:18:50.405Z,9.20
2023-05-01T02:19:50.369Z,7.50
2023-05-01T02:20:50.358Z,8.00
2023-05-01T02:21:50.371Z,7.00
2023-05-01T02:22:50.330Z,8.10
2023-05-01T02:23:50.324Z,7.20
2023-05-01T02:24:50.299Z,8.00
2023-05-01T02:25:50.306Z,7.80
2023-05-01T02:26:50.303Z,6.90
2023-05-01T02:27:50.282Z,6.50
2023-05-01T02:28:50.261Z,9.10
2023-05-01T02:29:50.253Z,8.10
2023-05-01T02:30:50.239Z,6.30
2023-05-01T02:31:50.269Z,6.00
2023-05-01T02:32:50.276Z,5.80
2023-05-01T02:33:50.227Z,10.30
2023-05-01T02:34:50.221Z,7.10
2023-05-01T02:35:50.200Z,6.50
2023-05-01T02:36:50.190Z,7.50
2023-05-01T02:37:50.161Z,6.90
2023-05-01T02:38:50.153Z,7.00
2023-05-01T02:39:50.146Z,5.60
2023-05-01T02:40:50.154Z,5.00
2023-05-01T02:41:50.137Z,8.80
2023-05-01T02:42:50.107Z,6.90
2023-05-01T02:43:50.095Z,5.30
2023-05-01T02:44:50.087Z,7.80
2023-05-01T02:45:50.143Z,5.50
2023-05-01T02:46:50.134Z,7.10
2023-05-01T02:47:50.063Z,9.40
2023-05-01T02:48:50.053Z,5.30
2023-05-01T02:49:50.030Z,6.20
2023-05-01T02:50:50.041Z,5.90
2023-05-01T02:51:50.031Z,7.80
2023-05-01T02:52:49.995Z,6.90
2023-05-01T02:53:49.994Z,7.60
2023-05-01T02:54:49.978Z,7.20
2023-05-01T02:55:49.967Z,6.10
2023-05-01T02:56:49.972Z,6.50
2023-05-01T02:57:49.942Z,5.60
2023-05-01T02:58:49.931Z,8.80
2023-05-01T02:59:49.923Z,7.20
2023-05-01T03:00:50.308Z,6.00
2023-05-01T03:01:49.997Z,7.90
2023-05-01T03:02:49.913Z,5.20
2023-05-01T03:03:49.928Z,6.50
2023-05-01T03:04:49.871Z,6.30
2023-05-01T03:05:49.857Z,5.30
2023-05-01T03:06:49.878Z,6.80
2023-05-01T03:07:49.828Z,6.00
2023-05-01T03:08:49.826Z,7.50
2023-05-01T03:09:49.807Z,6.40
2023-05-01T03:10:49.815Z,8.40
2023-05-01T03:11:49.808Z,5.00
2023-05-01T03:12:49.780Z,7.00
2023-05-01T03:13:49.762Z,6.10
2023-05-01T03:14:49.757Z,7.50
2023-05-01T03:15:49.756Z,6.70
2023-05-01T03:16:49.830Z,7.40
2023-05-01T03:17:49.728Z,5.30
2023-05-01T03:18:49.713Z,6.20
2023-05-01T03:19:49.705Z,5.30
2023-05-01T03:20:49.684Z,6.20
2023-05-01T03:21:49.702Z,7.20
2023-05-01T03:22:49.672Z,5.50
2023-05-01T03:23:49.656Z,6.70
2023-05-01T03:24:49.635Z,7.90
2023-05-01T03:25:49.627Z,5.30
2023-05-01T03:26:49.634Z,6.80
2023-05-01T03:27:49.609Z,5.00
2023-05-01T03:28:49.595Z,4.50
2023-05-01T03:29:49.591Z,6.10
2023-05-01T03:30:49.582Z,6.00
2023-05-01T03:31:49.637Z,6.50
2023-05-01T03:32:49.594Z,7.10
2023-05-01T03:33:49.549Z,4.70
2023-05-01T03:34:49.595Z,6.70
2023-05-01T03:35:49.585Z,5.80
2023-05-01T03:36:49.506Z,6.30
2023-05-01T03:37:49.521Z,5.70
2023-05-01T03:38:49.491Z,5.60
2023-05-01T03:39:49.465Z,7.30
2023-05-01T03:40:49.459Z,6.30
2023-05-01T03:41:49.455Z,5.10
2023-05-01T03:42:49.454Z,6.60
2023-05-01T03:43:49.429Z,6.30
2023-05-01T03:44:49.432Z,6.70
2023-05-01T03:45:49.429Z,6.10
2023-05-01T03:46:49.404Z,6.60
2023-05-01T03:47:49.420Z,7.60
2023-05-01T03:48:49.377Z,5.30
2023-05-01T03:49:49.366Z,6.10
2023-05-01T03:50:49.352Z,6.10
2023-05-01T03:51:49.362Z,6.90
2023-05-01T03:52:49.341Z,5.00
2023-05-01T03:53:49.312Z,7.00
2023-05-01T03:54:49.319Z,6.70
2023-05-01T03:55:49.285Z,5.80
2023-05-01T03:56:49.292Z,7.70
2023-05-01T03:57:49.291Z,5.70
2023-05-01T03:58:49.258Z,8.00
2023-05-01T03:59:49.268Z,7.20
2023-05-01T04:00:49.255Z,8.20
2023-05-01T04:01:49.325Z,5.20
2023-05-01T04:02:49.586Z,6.00
2023-05-01T04:03:49.364Z,7.40
2023-05-01T04:04:49.211Z,7.40
2023-05-01T04:05:49.220Z,6.30
2023-05-01T04:06:49.360Z,5.70
2023-05-01T04:07:49.196Z,7.90
2023-05-01T04:08:49.163Z,6.00
2023-05-01T04:09:49.148Z,6.60
2023-05-01T04:10:49.203Z,5.20
2023-05-01T04:11:49.197Z,7.10
2023-05-01T04:12:49.223Z,5.80
2023-05-01T04:13:49.202Z,7.80
2023-05-01T04:14:49.091Z,7.10
2023-05-01T04:15:49.139Z,5.80
2023-05-01T04:16:49.077Z,6.80
2023-05-01T04:17:49.095Z,8.90
2023-05-01T04:18:49.057Z,5.40
2023-05-01T04:19:49.046Z,6.70
2023-05-01T04:20:49.021Z,6.80
2023-05-01T04:21:49.006Z,5.60
2023-05-01T04:22:49.029Z,6.20
2023-05-01T04:23:48.990Z,7.40
2023-05-01T04:24:49.002Z,7.40
2023-05-01T04:25:48.984Z,6.50
2023-05-01T04:26:48.971Z,7.20
2023-05-01T04:27:48.957Z,6.60
2023-05-01T04:28:48.934Z,5.70
2023-05-01T04:29:48.924Z,6.90
2023-05-01T04:30:48.924Z,9.60
2023-05-01T04:31:48.913Z,5.60
2023-05-01T04:32:49.000Z,6.60
2023-05-01T04:33:48.887Z,5.30
2023-05-01T04:34:48.866Z,4.90
2023-05-01T04:35:48.856Z,4.70
2023-05-01T04:36:48.864Z,5.70
2023-05-01T04:37:48.854Z,8.80
2023-05-01T04:38:48.825Z,6.20
2023-05-01T04:39:48.821Z,6.70
2023-05-01T04:40:48.814Z,6.90
2023-05-01T04:41:48.783Z,5.60
2023-05-01T04:42:48.790Z,4.00
2023-05-01T04:43:48.766Z,5.90
2023-05-01T04:44:48.755Z,5.00
2023-05-01T04:45:48.736Z,5.90
2023-05-01T04:46:48.739Z,6.90
2023-05-01T04:47:48.752Z,7.50
2023-05-01T04:48:48.718Z,5.90
2023-05-01T04:49:48.695Z,7.90
2023-05-01T04:50:48.686Z,5.10
2023-05-01T04:51:48.670Z,5.50
2023-05-01T04:52:48.681Z,5.40
2023-05-01T04:53:48.666Z,6.30
2023-05-01T04:54:48.646Z,6.00
2023-05-01T04:55:48.627Z,7.50
2023-05-01T04:56:48.616Z,6.70
2023-05-01T04:57:48.633Z,5.40
2023-05-01T04:58:48.592Z,5.60
2023-05-01T04:59:48.590Z,6.00
2023-05-01T05:00:48.582Z,4.70
2023-05-01T05:01:48.606Z,6.20
2023-05-01T05:02:48.666Z,5.20
2023-05-01T05:03:50.254Z,7.20
2023-05-01T05:04:48.538Z,5.30
2023-05-01T05:05:48.516Z,5.70
2023-05-01T05:06:48.686Z,7.40
2023-05-01T05:07:48.521Z,5.60
2023-05-01T05:08:48.485Z,6.90
2023-05-01T05:09:48.471Z,5.30
2023-05-01T05:10:48.471Z,6.60
2023-05-01T05:11:48.453Z,4.90
2023-05-01T05:12:48.465Z,5.90
2023-05-01T05:13:48.461Z,6.50
2023-05-01T05:14:48.418Z,7.00
2023-05-01T05:15:48.406Z,9.10
2023-05-01T05:16:48.453Z,7.40
2023-05-01T05:17:48.552Z,7.00
2023-05-01T05:18:48.372Z,6.80
2023-05-01T05:19:48.377Z,3.60
2023-05-01T05:20:48.353Z,6.80
2023-05-01T05:21:48.337Z,5.60
2023-05-01T05:22:48.341Z,5.80
2023-05-01T05:23:48.321Z,8.60
2023-05-01T05:24:48.300Z,6.40
2023-05-01T05:25:48.296Z,8.50
2023-05-01T05:26:48.285Z,5.90
2023-05-01T05:27:48.289Z,7.00
2023-05-01T05:28:48.282Z,6.30
2023-05-01T05:29:48.269Z,4.90
2023-05-01T05:30:48.242Z,5.70
2023-05-01T05:31:48.293Z,5.30
2023-05-01T05:32:48.316Z,7.10
2023-05-01T05:33:48.219Z,5.10
2023-05-01T05:34:48.204Z,6.30
2023-05-01T05:35:48.193Z,8.10
2023-05-01T05:36:48.181Z,5.00
2023-05-01T05:37:48.180Z,7.40
2023-05-01T05:38:48.163Z,5.80
2023-05-01T05:39:48.149Z,5.70
2023-05-01T05:40:48.134Z,5.10
2023-05-01T05:41:48.120Z,7.40
2023-05-01T05:42:48.239Z,4.70
2023-05-01T05:43:48.101Z,5.90
2023-05-01T05:44:48.089Z,4.90
2023-05-01T05:45:48.088Z,6.10
2023-05-01T05:46:48.071Z,5.60
2023-05-01T05:47:48.109Z,6.00
2023-05-01T05:48:48.044Z,6.50
2023-05-01T05:49:48.033Z,6.70
2023-05-01T05:50:48.030Z,6.50
2023-05-01T05:51:48.018Z,6.10
2023-05-01T05:52:48.015Z,5.80
2023-05-01T05:53:47.986Z,5.70
2023-05-01T05:54:47.982Z,6.80
2023-05-01T05:55:47.966Z,5.30
2023-05-01T05:56:47.959Z,7.00
2023-05-01T05:57:47.958Z,6.90
2023-05-01T05:58:47.931Z,5.80
2023-05-01T05:59:47.927Z,7.90
2023-05-01T06:00:47.924Z,8.50
2023-05-01T06:01:47.910Z,5.60
2023-05-01T06:02:47.997Z,6.60
2023-05-01T06:03:47.930Z,6.20
2023-05-01T06:04:47.870Z,6.00
2023-05-01T06:05:47.908Z,7.90
2023-05-01T06:06:47.889Z,5.50
2023-05-01T06:07:47.870Z,8.40
2023-05-01T06:08:47.832Z,6.10
2023-05-01T06:09:47.822Z,6.50
2023-05-01T06:10:47.811Z,5.90
2023-05-01T06:11:47.796Z,6.60
2023-05-01T06:12:51.027Z,9.00
2023-05-01T06:13:47.772Z,6.90
2023-05-01T06:14:47.775Z,5.40
2023-05-01T06:15:47.796Z,6.80
2023-05-01T06:16:47.728Z,9.00
2023-05-01T06:17:47.749Z,6.50
2023-05-01T06:18:47.719Z,7.00
2023-05-01T06:19:47.706Z,5.20
2023-05-01T06:20:47.698Z,7.50
2023-05-01T06:21:47.683Z,6.80
2023-05-01T06:22:47.691Z,5.60
2023-05-01T06:23:47.653Z,8.60
2023-05-01T06:24:47.656Z,6.00
2023-05-01T06:25:47.632Z,5.20
2023-05-01T06:26:47.625Z,8.10
2023-05-01T06:27:47.624Z,5.20
2023-05-01T06:28:47.607Z,5.00
2023-05-01T06:29:47.584Z,5.00
2023-05-01T06:30:47.575Z,5.50
2023-05-01T06:31:47.594Z,7.40
2023-05-01T06:32:47.590Z,6.40
2023-05-01T06:33:47.552Z,9.40
2023-05-01T06:34:47.537Z,8.10
2023-05-01T06:35:47.528Z,4.50
2023-05-01T06:36:47.518Z,5.80
2023-05-01T06:37:47.575Z,5.40
2023-05-01T06:38:47.490Z,5.60
2023-05-01T06:39:47.475Z,5.00
2023-05-01T06:40:47.474Z,5.70
2023-05-01T06:41:47.475Z,5.80
2023-05-01T06:42:47.460Z,5.10
2023-05-01T06:43:47.429Z,4.70
2023-05-01T06:44:47.423Z,3.80
2023-05-01T06:45:47.408Z,7.10
2023-05-01T06:46:47.427Z,6.10
2023-05-01T06:47:47.452Z,6.70
2023-05-01T06:48:47.377Z,6.50
2023-05-01T06:49:47.367Z,4.10
2023-05-01T06:50:47.355Z,6.10
2023-05-01T06:51:47.340Z,5.20
2023-05-01T06:52:47.347Z,9.50
2023-05-01T06:53:47.320Z,5.80
2023-05-01T06:54:47.307Z,7.10
2023-05-01T06:55:47.290Z,4.70
2023-05-01T06:56:47.293Z,6.70
2023-05-01T06:57:47.289Z,6.70
2023-05-01T06:58:47.273Z,6.20
2023-05-01T06:59:47.249Z,6.00
2023-05-01T07:00:47.248Z,6.30
2023-05-01T07:01:47.264Z,5.10
2023-05-01T07:02:47.321Z,6.50
2023-05-01T07:03:47.206Z,5.80
2023-05-01T07:04:47.203Z,3.60
2023-05-01T07:05:47.190Z,5.90
2023-05-01T07:06:47.300Z,4.30
2023-05-01T07:07:57.959Z,6.30
2023-05-01T07:08:47.172Z,6.70
2023-05-01T07:09:47.168Z,7.20
2023-05-01T07:10:47.136Z,5.60
2023-05-01T07:11:47.121Z,5.20
2023-05-01T07:12:47.127Z,4.20
2023-05-01T07:13:47.103Z,5.90
2023-05-01T07:14:47.091Z,6.00
2023-05-01T07:15:47.071Z,6.00
2023-05-01T07:16:47.168Z,4.90
2023-05-01T07:17:47.102Z,6.20
2023-05-01T07:18:47.045Z,5.90
2023-05-01T07:19:47.040Z,5.80
2023-05-01T07:20:47.026Z,6.00
2023-05-01T07:21:47.011Z,5.50
2023-05-01T07:22:47.031Z,5.00
2023-05-01T07:23:46.988Z,5.00
2023-05-01T07:24:46.986Z,5.70
2023-05-01T07:25:46.961Z,5.20
2023-05-01T07:26:46.948Z,5.00
2023-05-01T07:27:46.960Z,5.50
2023-05-01T07:28:46.930Z,5.70
2023-05-01T07:29:46.951Z,4.20
2023-05-01T07:30:46.905Z,4.80
2023-05-01T07:31:46.928Z,5.60
2023-05-01T07:32:46.925Z,5.20
2023-05-01T07:33:46.872Z,4.50
2023-05-01T07:34:46.862Z,6.00
2023-05-01T07:35:46.861Z,4.70
2023-05-01T07:36:46.848Z,5.20
2023-05-01T07:37:46.849Z,4.70
2023-05-01T07:38:46.816Z,4.50
2023-05-01T07:39:46.804Z,6.90
2023-05-01T07:40:46.805Z,5.70
2023-05-01T07:41:46.793Z,5.40
2023-05-01T07:42:46.797Z,7.30
2023-05-01T07:43:46.761Z,6.10
2023-05-01T07:44:46.746Z,4.60
2023-05-01T07:45:46.774Z,5.60
2023-05-01T07:46:46.733Z,3.70
2023-05-01T07:47:46.762Z,5.50
2023-05-01T07:48:46.712Z,6.70
2023-05-01T07:49:46.687Z,4.80
2023-05-01T07:50:46.682Z,5.00
2023-05-01T07:51:46.675Z,5.00
2023-05-01T07:52:46.677Z,5.50
2023-05-01T07:53:46.658Z,4.20
2023-05-01T07:54:46.648Z,6.00
2023-05-01T07:55:46.622Z,4.50
2023-05-01T07:56:47.980Z,4.80
2023-05-01T07:57:46.622Z,4.80
2023-05-01T07:58:46.598Z,4.50
2023-05-01T07:59:46.587Z,7.20
2023-05-01T08:00:46.578Z,5.70
2023-05-01T08:01:46.557Z,6.40
2023-05-01T08:02:46.614Z,3.80
2023-05-01T08:03:48.704Z,5.20
2023-05-01T08:04:46.565Z,4.20
2023-05-01T08:05:46.518Z,5.20
2023-05-01T08:06:46.541Z,6.10
2023-05-01T08:07:46.503Z,5.10
2023-05-01T08:08:46.497Z,6.10
2023-05-01T08:09:46.468Z,5.30
2023-05-01T08:10:46.461Z,5.30
2023-05-01T08:11:46.446Z,5.80
2023-05-01T08:12:46.456Z,5.30
2023-05-01T08:13:46.447Z,4.90
2023-05-01T08:14:46.421Z,4.70
2023-05-01T08:15:46.477Z,5.80
2023-05-01T08:16:46.526Z,4.80
2023-05-01T08:17:46.416Z,3.80
2023-05-01T08:18:46.480Z,5.20
2023-05-01T08:19:46.381Z,6.30
2023-05-01T08:20:46.348Z,5.20
2023-05-01T08:21:46.335Z,7.00
2023-05-01T08:22:46.333Z,3.70
2023-05-01T08:23:46.343Z,4.50
2023-05-01T08:24:46.304Z,4.40
2023-05-01T08:25:46.325Z,4.90
2023-05-01T08:26:46.311Z,6.20
2023-05-01T08:27:46.307Z,4.80
2023-05-01T08:28:46.273Z,5.40
2023-05-01T08:29:46.254Z,4.40
2023-05-01T08:30:46.252Z,5.40
2023-05-01T08:31:46.306Z,4.80
2023-05-01T08:32:46.241Z,4.90
2023-05-01T08:33:46.221Z,4.50
2023-05-01T08:34:46.198Z,3.50
2023-05-01T08:35:46.195Z,4.30
2023-05-01T08:36:46.186Z,3.70
2023-05-01T08:37:46.158Z,7.20
2023-05-01T08:38:46.166Z,5.30
2023-05-01T08:39:46.144Z,5.40
2023-05-01T08:40:46.128Z,5.90
2023-05-01T08:41:46.137Z,5.10
2023-05-01T08:42:46.111Z,4.00
2023-05-01T08:43:46.116Z,4.60
2023-05-01T08:44:46.090Z,5.00
2023-05-01T08:45:46.074Z,3.00
2023-05-01T08:46:46.212Z,5.20
2023-05-01T08:47:46.085Z,4.90
2023-05-01T08:48:46.055Z,4.60
2023-05-01T08:49:46.026Z,6.40
2023-05-01T08:50:46.027Z,4.90
2023-05-01T08:51:46.007Z,6.60
2023-05-01T08:52:46.003Z,5.00
2023-05-01T08:53:46.011Z,4.60
2023-05-01T08:54:45.976Z,5.00
2023-05-01T08:55:45.964Z,6.10
2023-05-01T08:56:45.952Z,6.60
2023-05-01T08:57:45.938Z,4.70
2023-05-01T08:58:45.945Z,4.50
2023-05-01T08:59:45.916Z,3.40
2023-05-01T09:00:45.904Z,4.90
2023-05-01T09:01:45.946Z,5.50
2023-05-01T09:02:45.902Z,5.30
2023-05-01T09:03:45.945Z,3.70
2023-05-01T09:04:45.858Z,5.10
2023-05-01T09:05:45.846Z,4.50
2023-05-01T09:06:45.896Z,4.70
2023-05-01T09:07:45.846Z,4.80
2023-05-01T09:08:45.832Z,4.60
2023-05-01T09:09:45.810Z,6.60
2023-05-01T09:10:45.793Z,5.00
2023-05-01T09:11:45.781Z,4.90
2023-05-01T09:12:45.759Z,5.00
2023-05-01T09:13:45.777Z,5.70
2023-05-01T09:14:45.752Z,3.50
2023-05-01T09:15:45.749Z,6.10
2023-05-01T09:16:45.776Z,3.90
2023-05-01T09:17:45.778Z,4.90
2023-05-01T09:18:45.730Z,5.00
2023-05-01T09:19:45.696Z,4.20
2023-05-01T09:20:45.688Z,6.20
2023-05-01T09:21:45.675Z,5.10
2023-05-01T09:22:45.658Z,5.00
2023-05-01T09:23:45.704Z,5.20
2023-05-01T09:24:45.643Z,2.90
2023-05-01T09:25:45.629Z,4.90
2023-05-01T09:26:45.613Z,4.40
2023-05-01T09:27:45.606Z,3.60
2023-05-01T09:28:45.623Z,6.50
2023-05-01T09:29:45.581Z,4.60
2023-05-01T09:30:45.575Z,5.20
2023-05-01T09:31:45.709Z,5.50
2023-05-01T09:32:45.591Z,4.30
2023-05-01T09:33:45.552Z,5.10
2023-05-01T09:34:45.560Z,3.60
2023-05-01T09:35:45.512Z,6.00
2023-05-01T09:36:45.506Z,3.70
2023-05-01T09:37:47.494Z,3.70
2023-05-01T09:38:45.490Z,3.80
2023-05-01T09:39:45.468Z,4.40
2023-05-01T09:40:45.485Z,5.40
2023-05-01T09:41:45.448Z,4.10
2023-05-01T09:42:45.442Z,3.90
2023-05-01T09:43:45.441Z,5.10
2023-05-01T09:44:45.490Z,4.90
2023-05-01T09:45:45.404Z,2.90
2023-05-01T09:46:45.437Z,4.60
2023-05-01T09:47:45.412Z,4.10
2023-05-01T09:48:45.390Z,3.80
2023-05-01T09:49:45.358Z,6.20
2023-05-01T09:50:45.342Z,5.80
2023-05-01T09:51:45.327Z,5.20
2023-05-01T09:52:45.432Z,3.50
2023-05-01T09:53:45.323Z,3.60
2023-05-01T09:54:45.366Z,5.10
2023-05-01T09:55:45.291Z,5.30
2023-05-01T09:56:46.105Z,4.70
2023-05-01T09:57:45.280Z,4.30
2023-05-01T09:58:45.319Z,4.40
2023-05-01T09:59:45.250Z,4.10
2023-05-01T10:00:45.257Z,5.10
2023-05-01T10:01:45.280Z,4.80
2023-05-01T10:02:45.337Z,5.20
2023-05-01T10:03:45.351Z,4.60
2023-05-01T10:04:45.199Z,4.10
2023-05-01T10:05:45.179Z,3.70
2023-05-01T10:06:45.233Z,4.30
2023-05-01T10:07:45.160Z,4.60
2023-05-01T10:08:45.161Z,6.20
2023-05-01T10:09:45.140Z,4.30
2023-05-01T10:10:45.122Z,4.30
2023-05-01T10:11:45.112Z,3.30
2023-05-01T10:12:45.110Z,4.10
2023-05-01T10:13:45.112Z,3.40
2023-05-01T10:14:45.082Z,3.40
2023-05-01T10:15:45.066Z,4.50
2023-05-01T10:16:45.087Z,3.80
2023-05-01T10:17:45.097Z,4.20
2023-05-01T10:18:45.071Z,5.70
2023-05-01T10:19:45.025Z,4.10
2023-05-01T10:20:45.022Z,5.60
2023-05-01T10:21:45.028Z,7.70
2023-05-01T10:22:45.000Z,5.60
2023-05-01T10:23:44.998Z,5.00
2023-05-01T10:24:44.978Z,5.70
2023-05-01T10:25:44.968Z,4.80
2023-05-01T10:26:44.988Z,4.30
2023-05-01T10:27:44.975Z,6.00
2023-05-01T10:28:44.944Z,4.60
2023-05-01T10:29:44.922Z,3.40
2023-05-01T10:30:44.971Z,3.00
2023-05-01T10:31:44.935Z,3.10
2023-05-01T10:32:44.919Z,4.40
2023-05-01T10:33:44.887Z,4.50
2023-05-01T10:34:44.884Z,3.50
2023-05-01T10:35:44.858Z,4.40
2023-05-01T10:36:44.867Z,3.70
2023-05-01T10:37:44.834Z,3.70
2023-05-01T10:38:44.831Z,3.30
2023-05-01T10:39:44.825Z,4.30
2023-05-01T10:40:44.796Z,3.30
2023-05-01T10:41:44.778Z,3.40
2023-05-01T10:42:44.778Z,4.60
2023-05-01T10:43:44.758Z,3.10
2023-05-01T10:44:44.746Z,3.70
2023-05-01T10:45:44.767Z,5.00
2023-05-01T10:46:44.760Z,2.70
2023-05-01T10:47:44.746Z,3.60
2023-05-01T10:48:44.711Z,4.00
2023-05-01T10:49:44.798Z,4.90
2023-05-01T10:50:44.691Z,4.00
2023-05-01T10:51:44.683Z,4.40
2023-05-01T10:52:44.660Z,4.40
2023-05-01T10:53:44.666Z,2.30
2023-05-01T10:54:44.651Z,4.90
2023-05-01T10:55:44.648Z,3.50
2023-05-01T10:56:44.646Z,3.80
2023-05-01T10:57:44.608Z,4.80
2023-05-01T10:58:44.595Z,3.10
2023-05-01T10:59:44.604Z,2.50
2023-05-01T11:00:44.581Z,3.00
2023-05-01T11:01:44.594Z,5.70
2023-05-01T11:02:44.625Z,4.00
2023-05-01T11:03:44.535Z,3.70
2023-05-01T11:04:44.528Z,3.80
2023-05-01T11:05:44.566Z,3.30
2023-05-01T11:06:44.613Z,3.40
2023-05-01T11:07:44.490Z,3.70
2023-05-01T11:08:45.502Z,4.80
2023-05-01T11:09:44.475Z,2.60
2023-05-01T11:10:44.461Z,3.90
2023-05-01T11:11:44.450Z,3.30
2023-05-01T11:12:44.458Z,3.40
2023-05-01T11:13:44.428Z,3.40
2023-05-01T11:14:44.413Z,4.20
2023-05-01T11:15:44.398Z,4.50
2023-05-01T11:16:44.453Z,4.30
2023-05-01T11:17:44.517Z,3.50
2023-05-01T11:18:44.394Z,3.80
2023-05-01T11:19:44.354Z,2.90
2023-05-01T11:20:44.353Z,2.70
2023-05-01T11:21:44.335Z,4.00
2023-05-01T11:22:44.326Z,3.80
2023-05-01T11:23:44.334Z,4.20
2023-05-01T11:24:44.310Z,3.80
2023-05-01T11:25:44.289Z,4.60
2023-05-01T11:26:44.282Z,2.10
2023-05-01T11:27:44.273Z,2.60
2023-05-01T11:28:44.273Z,2.60
2023-05-01T11:29:44.255Z,2.80
2023-05-01T11:30:44.245Z,3.80
2023-05-01T11:31:44.270Z,3.10
2023-05-01T11:32:44.260Z,3.80
2023-05-01T11:33:44.216Z,4.90
2023-05-01T11:34:44.197Z,4.00
2023-05-01T11:35:44.179Z,4.20
2023-05-01T11:36:44.174Z,3.10
2023-05-01T11:37:44.181Z,2.40
2023-05-01T11:38:44.162Z,5.30
2023-05-01T11:39:44.134Z,3.30
2023-05-01T11:40:44.123Z,2.70
2023-05-01T11:41:44.134Z,3.90
2023-05-01T11:42:44.103Z,3.40
2023-05-01T11:43:44.112Z,4.10
2023-05-01T11:44:44.079Z,4.20
2023-05-01T11:45:44.093Z,5.00
2023-05-01T11:46:44.058Z,5.50
2023-05-01T11:47:44.144Z,4.20
2023-05-01T11:48:44.059Z,3.20
2023-05-01T11:49:44.029Z,2.50
2023-05-01T11:50:44.014Z,2.20
2023-05-01T11:51:44.001Z,3.70
2023-05-01T11:52:44.067Z,3.50
2023-05-01T11:53:43.996Z,2.40
2023-05-01T11:54:43.969Z,3.60
2023-05-01T11:55:43.963Z,2.80
2023-05-01T11:56:43.973Z,2.60
2023-05-01T11:57:43.946Z,3.80
2023-05-01T11:58:43.943Z,4.30
2023-05-01T11:59:43.909Z,4.10
2023-05-01T12:00:43.942Z,2.60
2023-05-01T12:01:43.899Z,3.20
2023-05-01T12:02:50.006Z,4.00
2023-05-01T12:03:43.991Z,3.50
2023-05-01T12:04:43.891Z,3.10
2023-05-01T12:05:43.862Z,2.40
2023-05-01T12:06:44.042Z,3.40
2023-05-01T12:07:43.827Z,3.60
2023-05-01T12:08:43.839Z,2.50
2023-05-01T12:09:43.812Z,4.70
2023-05-01T12:10:43.985Z,3.80
2023-05-01T12:11:43.794Z,2.90
2023-05-01T12:12:43.775Z,3.30
2023-05-01T12:13:43.795Z,2.40
2023-05-01T12:14:43.754Z,4.50
2023-05-01T12:15:43.759Z,3.00
2023-05-01T12:16:43.778Z,2.90
2023-05-01T12:17:43.794Z,4.00
2023-05-01T12:18:43.754Z,2.40
2023-05-01T12:19:43.704Z,3.20
2023-05-01T12:20:43.695Z,6.00
2023-05-01T12:21:43.670Z,4.60
2023-05-01T12:22:43.664Z,2.90
2023-05-01T12:23:43.680Z,2.70
2023-05-01T12:24:43.664Z,2.50
2023-05-01T12:25:43.636Z,3.90
2023-05-01T12:26:43.637Z,2.60
2023-05-01T12:27:43.611Z,2.40
2023-05-01T12:28:43.624Z,2.80
2023-05-01T12:29:43.598Z,2.50
2023-05-01T12:30:43.582Z,4.40
2023-05-01T12:31:43.621Z,3.40
2023-05-01T12:32:43.658Z,2.50
2023-05-01T12:33:43.555Z,3.70
2023-05-01T12:34:43.533Z,3.10
2023-05-01T12:35:43.519Z,3.60
2023-05-01T12:36:43.512Z,3.10
2023-05-01T12:37:43.505Z,4.50
2023-05-01T12:38:43.520Z,3.80
2023-05-01T12:39:43.479Z,3.50
2023-05-01T12:40:43.493Z,3.00
2023-05-01T12:41:43.473Z,3.70
2023-05-01T12:42:43.460Z,2.70
2023-05-01T12:43:44.405Z,3.70
2023-05-01T12:44:43.423Z,4.30
2023-05-01T12:45:43.411Z,2.50
2023-05-01T12:46:43.407Z,3.40
2023-05-01T12:47:43.421Z,2.60
2023-05-01T12:48:43.410Z,3.30
2023-05-01T12:49:43.382Z,3.60
2023-05-01T12:50:44.748Z,3.70
2023-05-01T12:51:43.364Z,4.00
2023-05-01T12:52:43.333Z,3.20
2023-05-01T12:53:43.316Z,3.90
2023-05-01T12:54:43.328Z,2.30
2023-05-01T12:55:43.305Z,3.40
2023-05-01T12:56:43.294Z,3.60
2023-05-01T12:57:43.278Z,2.60
2023-05-01T12:58:43.272Z,2.90
2023-05-01T12:59:43.274Z,2.60
2023-05-01T13:00:43.252Z,4.90
2023-05-01T13:01:43.297Z,3.00
2023-05-01T13:02:43.235Z,4.00
2023-05-01T13:03:43.289Z,2.90
2023-05-01T13:04:43.220Z,3.50
2023-05-01T13:05:43.193Z,3.40
2023-05-01T13:06:43.263Z,3.30
2023-05-01T13:07:43.206Z,4.10
2023-05-01T13:08:43.153Z,2.30
2023-05-01T13:09:43.193Z,3.20
2023-05-01T13:10:43.151Z,2.60
2023-05-01T13:11:43.133Z,3.20
2023-05-01T13:12:43.118Z,2.60
2023-05-01T13:13:43.121Z,3.30
2023-05-01T13:14:43.120Z,3.60
2023-05-01T13:15:43.071Z,3.00
2023-05-01T13:16:43.177Z,3.80